createdAt,value
2022-08-24T00:01:30.439Z,25.07
2022-08-24T00:04:39.197Z,26.93
2022-08-24T00:07:47.488Z,25.00
2022-08-24T00:10:53.622Z,26.53
2022-08-24T00:14:00.615Z,29.17
2022-08-24T00:17:09.078Z,29.83
2022-08-24T00:20:19.856Z,27.27
2022-08-24T00:23:27.444Z,31.47
2022-08-24T00:26:35.431Z,31.13
2022-08-24T00:29:41.574Z,32.13
2022-08-24T00:32:50.205Z,33.63
2022-08-24T00:35:59.205Z,32.23
2022-08-24T00:39:09.271Z,32.50
2022-08-24T00:42:15.667Z,34.87
2022-08-24T00:45:24.761Z,35.20
2022-08-24T00:48:35.130Z,34.27
2022-08-24T00:51:58.786Z,39.40
2022-08-24T00:55:13.309Z,37.70
2022-08-24T00:58:25.642Z,37.67
2022-08-24T01:01:36.984Z,37.33
2022-08-24T01:04:52.216Z,40.63
2022-08-24T01:08:03.265Z,36.47
2022-08-24T01:11:15.035Z,33.50
2022-08-24T01:14:25.087Z,34.50
2022-08-24T01:17:46.451Z,33.43
2022-08-24T01:21:00.060Z,34.53
2022-08-24T01:24:16.017Z,32.67
2022-08-24T01:27:26.378Z,33.10
2022-08-24T01:30:36.737Z,36.03
2022-08-24T01:33:43.747Z,36.07
2022-08-24T01:36:56.330Z,33.10
2022-08-24T01:40:09.917Z,33.10
2022-08-24T01:43:17.902Z,30.20
2022-08-24T01:46:25.007Z,32.00
2022-08-24T01:49:34.379Z,30.67
2022-08-24T01:53:04.349Z,30.13
2022-08-24T01:56:16.041Z,30.50
2022-08-24T01:59:24.017Z,30.90
2022-08-24T02:02:33.961Z,30.30
2022-08-24T02:05:41.297Z,32.27
2022-08-24T02:08:53.431Z,31.87
2022-08-24T02:12:03.669Z,31.60
2022-08-24T02:15:15.074Z,31.03
2022-08-24T02:18:22.187Z,31.83
2022-08-24T02:21:29.639Z,29.97
2022-08-24T02:24:37.072Z,32.87
2022-08-24T02:27:47.236Z,30.97
2022-08-24T02:30:53.945Z,33.20
2022-08-24T02:34:00.817Z,31.93
2022-08-24T02:37:10.424Z,32.17
2022-08-24T02:40:17.439Z,30.87
2022-08-24T02:43:27.573Z,31.37
2022-08-24T02:46:34.737Z,31.67
2022-08-24T02:49:42.430Z,31.83
2022-08-24T02:52:49.372Z,29.13
2022-08-24T02:55:56.148Z,29.07
2022-08-24T02:59:06.178Z,30.00
2022-08-24T03:02:13.265Z,29.07
2022-08-24T03:05:20.498Z,30.00
2022-08-24T03:08:27.862Z,29.13
2022-08-24T03:11:35.308Z,27.67
2022-08-24T03:14:45.285Z,28.53
2022-08-24T03:17:52.384Z,29.90
2022-08-24T03:21:03.186Z,29.07
2022-08-24T03:24:12.251Z,29.67
2022-08-24T03:27:19.684Z,28.83
2022-08-24T03:30:29.300Z,27.80
2022-08-24T03:33:38.398Z,27.97
2022-08-24T03:36:46.466Z,26.57
2022-08-24T03:39:55.031Z,28.40
2022-08-24T03:43:03.243Z,28.27
2022-08-24T03:46:13.694Z,29.37
2022-08-24T03:49:21.905Z,30.17
2022-08-24T03:52:33.449Z,30.37
2022-08-24T03:55:40.370Z,27.57
2022-08-24T03:58:47.282Z,28.77
2022-08-24T04:01:57.624Z,28.27
2022-08-24T04:05:08.192Z,25.37
2022-08-24T04:08:15.339Z,27.50
2022-08-24T04:11:27.011Z,25.33
2022-08-24T04:14:34.627Z,26.47
2022-08-24T04:17:53.129Z,25.40
2022-08-24T04:20:59.237Z,27.60
2022-08-24T04:24:07.510Z,25.87
2022-08-24T04:27:14.331Z,25.23
2022-08-24T04:30:21.541Z,25.27
2022-08-24T04:33:45.253Z,25.17
2022-08-24T04:36:52.310Z,24.13
2022-08-24T04:39:58.455Z,25.37
2022-08-24T04:43:19.482Z,25.37
2022-08-24T04:46:26.757Z,26.07
2022-08-24T04:49:38.526Z,24.67
2022-08-24T04:52:45.299Z,25.57
2022-08-24T04:55:56.567Z,26.83
2022-08-24T04:59:06.231Z,24.97
2022-08-24T05:02:14.261Z,24.27
2022-08-24T05:05:24.292Z,23.30
2022-08-24T05:08:31.678Z,22.70
2022-08-24T05:11:40.593Z,22.70
2022-08-24T05:14:47.903Z,22.47
2022-08-24T05:17:55.231Z,22.77
2022-08-24T05:21:06.359Z,21.37
2022-08-24T05:24:13.078Z,21.60
2022-08-24T05:27:20.800Z,21.83
2022-08-24T05:30:31.176Z,21.10
2022-08-24T05:33:38.389Z,21.60
2022-08-24T05:36:48.360Z,21.80
2022-08-24T05:40:11.988Z,22.83
2022-08-24T05:43:22.603Z,22.50
2022-08-24T05:46:31.925Z,21.07
2022-08-24T05:49:41.351Z,21.97
2022-08-24T05:52:52.416Z,22.27
2022-08-24T05:56:00.137Z,21.60
2022-08-24T05:59:08.826Z,18.53
2022-08-24T06:02:15.521Z,19.23
2022-08-24T06:05:22.739Z,18.87
2022-08-24T06:08:31.695Z,19.03
2022-08-24T06:11:41.939Z,20.90
2022-08-24T06:14:49.217Z,19.30
2022-08-24T06:18:00.668Z,20.60
2022-08-24T06:21:09.643Z,20.53
2022-08-24T06:24:40.171Z,20.37
2022-08-24T06:27:43.657Z,21.93
2022-08-24T06:30:50.681Z,19.40
2022-08-24T06:34:03.078Z,21.53
2022-08-24T06:37:10.565Z,20.57
2022-08-24T06:40:20.756Z,18.47
2022-08-24T06:43:27.687Z,17.52
2022-08-24T06:46:38.736Z,18.83
2022-08-24T06:49:46.168Z,18.17
2022-08-24T06:52:52.090Z,18.73
2022-08-24T06:56:04.202Z,19.30
2022-08-24T06:59:12.831Z,20.35
2022-08-24T07:02:19.650Z,21.75
2022-08-24T07:05:26.369Z,20.38
2022-08-24T07:08:57.133Z,21.60
2022-08-24T07:12:06.708Z,21.85
2022-08-24T07:15:16.321Z,20.58
2022-08-24T07:18:26.955Z,18.70
2022-08-24T07:21:34.699Z,21.05
2022-08-24T07:24:40.663Z,17.75
2022-08-24T07:27:51.733Z,18.75
2022-08-24T07:30:58.938Z,18.17
2022-08-24T07:34:09.774Z,17.90
2022-08-24T07:37:16.442Z,18.33
2022-08-24T07:40:30.159Z,18.92
2022-08-24T07:43:43.071Z,19.05
2022-08-24T07:46:50.553Z,21.52
2022-08-24T07:49:57.539Z,20.95
2022-08-24T07:53:09.755Z,20.70
2022-08-24T07:56:19.387Z,19.50
2022-08-24T07:59:31.283Z,17.85
2022-08-24T08:02:37.518Z,18.70
2022-08-24T08:05:45.251Z,16.00
2022-08-24T08:08:51.616Z,15.98
2022-08-24T08:11:58.806Z,14.68
2022-08-24T08:15:09.743Z,15.13
2022-08-24T08:18:25.423Z,14.07
2022-08-24T08:21:47.415Z,14.50
2022-08-24T08:24:54.236Z,14.07
2022-08-24T08:28:07.790Z,13.27
2022-08-24T08:31:28.520Z,13.93
2022-08-24T08:34:34.830Z,13.68
2022-08-24T08:37:42.812Z,14.02
2022-08-24T08:41:00.963Z,14.07
2022-08-24T08:44:16.414Z,14.10
2022-08-24T08:47:56.733Z,14.30
2022-08-24T08:51:42.498Z,14.63
2022-08-24T08:54:59.806Z,14.10
2022-08-24T08:58:57.674Z,14.65
2022-08-24T09:02:25.372Z,13.32
2022-08-24T09:06:04.027Z,12.95
2022-08-24T09:09:36.684Z,13.52
2022-08-24T09:12:57.065Z,13.10
2022-08-24T09:16:16.925Z,13.80
2022-08-24T09:19:43.424Z,13.80
2022-08-24T09:23:06.241Z,14.50
2022-08-24T09:26:24.057Z,14.13
2022-08-24T09:29:46.396Z,14.35
2022-08-24T09:33:04.099Z,13.82
2022-08-24T09:36:14.313Z,13.55
2022-08-24T09:39:39.899Z,14.65
2022-08-24T09:43:13.223Z,14.43
2022-08-24T09:47:16.504Z,15.27
2022-08-24T09:50:54.769Z,15.35
2022-08-24T09:54:44.900Z,15.57
2022-08-24T09:58:13.647Z,15.23
2022-08-24T10:01:31.768Z,15.18
2022-08-24T10:04:46.792Z,13.50
2022-08-24T10:08:06.563Z,13.88
2022-08-24T10:11:26.388Z,12.38
2022-08-24T10:14:48.306Z,12.93
2022-08-24T10:18:13.947Z,14.25
2022-08-24T10:21:32.227Z,14.35
2022-08-24T10:24:50.497Z,13.90
2022-08-24T10:28:10.672Z,12.93
2022-08-24T10:31:22.552Z,12.73
2022-08-24T10:34:45.035Z,12.48
2022-08-24T10:38:46.706Z,11.57
2022-08-24T10:42:59.268Z,10.27
2022-08-24T10:46:43.442Z,11.93
2022-08-24T10:50:31.092Z,11.93
2022-08-24T10:53:38.445Z,12.82
2022-08-24T10:57:00.734Z,12.55
2022-08-24T11:00:22.526Z,13.18
2022-08-24T11:03:32.969Z,12.88
2022-08-24T11:06:41.569Z,11.60
2022-08-24T11:09:53.564Z,11.15
2022-08-24T11:13:16.683Z,10.55
2022-08-24T11:16:29.675Z,10.13
2022-08-24T11:19:38.859Z,10.55
2022-08-24T11:23:03.278Z,10.40
2022-08-24T11:26:16.043Z,10.52
2022-08-24T11:29:23.854Z,9.70
2022-08-24T11:32:34.189Z,10.13
2022-08-24T11:35:43.797Z,11.15
2022-08-24T11:38:50.225Z,11.75
2022-08-24T11:42:03.100Z,11.52
2022-08-24T11:45:17.443Z,12.48
2022-08-24T11:48:37.347Z,12.57
2022-08-24T11:51:58.591Z,12.65
2022-08-24T11:55:15.219Z,10.05
2022-08-24T11:58:31.041Z,10.02
2022-08-24T12:01:48.261Z,9.65
2022-08-24T12:05:06.402Z,10.50
2022-08-24T12:08:26.449Z,10.60
2022-08-24T12:11:39.784Z,9.70
2022-08-24T12:15:00.554Z,10.70
2022-08-24T12:18:19.509Z,9.88
2022-08-24T12:21:32.061Z,10.55
2022-08-24T12:24:46.366Z,9.50
2022-08-24T12:27:55.687Z,10.55
2022-08-24T12:31:07.081Z,9.95
2022-08-24T12:34:21.679Z,9.50
2022-08-24T12:37:33.181Z,10.20
2022-08-24T12:40:48.257Z,10.85
2022-08-24T12:43:59.011Z,10.27
2022-08-24T12:47:07.102Z,9.80
2022-08-24T12:50:22.094Z,9.60
2022-08-24T12:53:52.429Z,10.50
2022-08-24T12:57:15.711Z,9.35
2022-08-24T13:00:26.102Z,10.05
2022-08-24T13:03:37.903Z,9.70
2022-08-24T13:06:49.699Z,10.02
2022-08-24T13:10:13.925Z,10.07
2022-08-24T13:13:44.717Z,11.00
2022-08-24T13:17:12.938Z,11.55
2022-08-24T13:20:24.439Z,11.93
2022-08-24T13:23:30.932Z,10.27
2022-08-24T13:26:37.800Z,10.35
2022-08-24T13:29:53.023Z,10.48
2022-08-24T13:33:06.620Z,10.40
2022-08-24T13:36:48.824Z,9.18
2022-08-24T13:40:11.485Z,10.13
2022-08-24T13:43:22.357Z,10.15
2022-08-24T13:46:44.429Z,10.05
2022-08-24T13:50:04.891Z,10.88
2022-08-24T13:53:49.786Z,10.88
2022-08-24T13:57:19.050Z,10.95
2022-08-24T14:00:47.219Z,10.90
2022-08-24T14:04:10.599Z,10.05
2022-08-24T14:07:23.525Z,10.30
2022-08-24T14:10:45.357Z,9.55
2022-08-24T14:14:06.322Z,8.93
2022-08-24T14:17:35.690Z,8.98
2022-08-24T14:21:00.130Z,9.88
2022-08-24T14:24:13.334Z,9.73
2022-08-24T14:27:40.521Z,9.75
2022-08-24T14:30:50.908Z,10.23
2022-08-24T14:34:16.553Z,10.30
2022-08-24T14:37:28.315Z,10.05
2022-08-24T14:40:38.206Z,10.25
2022-08-24T14:44:25.762Z,10.80
2022-08-24T14:47:49.318Z,10.82
2022-08-24T14:51:06.188Z,10.52
2022-08-24T14:54:27.964Z,10.43
2022-08-24T14:57:55.672Z,9.98
2022-08-24T15:01:27.581Z,10.55
2022-08-24T15:04:42.873Z,10.82
2022-08-24T15:07:57.769Z,9.70
2022-08-24T15:11:12.109Z,9.85
2022-08-24T15:14:33.789Z,10.68
2022-08-24T15:17:57.817Z,10.13
2022-08-24T15:21:14.182Z,10.32
2022-08-24T15:24:36.848Z,10.40
2022-08-24T15:27:53.652Z,10.30
2022-08-24T15:31:03.483Z,10.38
2022-08-24T15:34:10.642Z,11.38
2022-08-24T15:37:18.922Z,11.90
2022-08-24T15:40:29.976Z,10.93
2022-08-24T15:43:43.401Z,11.55
2022-08-24T15:46:54.840Z,11.77
2022-08-24T15:50:06.719Z,11.57
2022-08-24T15:53:32.513Z,11.30
2022-08-24T15:56:47.276Z,11.75
2022-08-24T15:59:58.308Z,11.48
2022-08-24T16:03:20.371Z,10.95
2022-08-24T16:06:29.683Z,11.68
2022-08-24T16:09:39.105Z,11.88
2022-08-24T16:12:45.867Z,11.23
2022-08-24T16:16:03.377Z,10.73
2022-08-24T16:19:21.144Z,11.45
2022-08-24T16:22:33.751Z,11.45
2022-08-24T16:25:43.669Z,11.52
2022-08-24T16:28:54.017Z,11.30
2022-08-24T16:32:19.099Z,11.10
2022-08-24T16:35:28.831Z,11.57
2022-08-24T16:38:36.981Z,12.02
2022-08-24T16:41:45.887Z,11.60
2022-08-24T16:44:53.280Z,12.02
2022-08-24T16:48:03.446Z,12.75
2022-08-24T16:51:10.545Z,11.77
2022-08-24T16:54:16.737Z,12.38
2022-08-24T16:57:27.236Z,12.85
2022-08-24T17:00:33.210Z,12.65
2022-08-24T17:03:42.846Z,12.80
2022-08-24T17:06:51.378Z,12.73
2022-08-24T17:09:59.467Z,12.73
2022-08-24T17:13:06.727Z,12.60
2022-08-24T17:16:15.508Z,13.35
2022-08-24T17:19:24.748Z,13.35
2022-08-24T17:22:32.388Z,13.02
2022-08-24T17:25:42.106Z,13.02
2022-08-24T17:28:49.841Z,13.68
2022-08-24T17:31:59.465Z,13.73
2022-08-24T17:35:10.015Z,13.77
2022-08-24T17:38:16.396Z,13.18
2022-08-24T17:41:24.159Z,13.77
2022-08-24T17:44:33.674Z,13.90
2022-08-24T17:47:40.602Z,11.07
2022-08-24T17:50:49.355Z,8.30
2022-08-24T17:53:56.123Z,5.80
2022-08-24T17:57:03.095Z,4.75
2022-08-24T18:00:13.407Z,4.57
2022-08-24T18:03:19.652Z,4.28
2022-08-24T18:06:35.534Z,3.63
2022-08-24T18:09:48.245Z,3.20
2022-08-24T18:12:55.279Z,3.85
2022-08-24T18:16:03.069Z,3.88
2022-08-24T18:19:11.901Z,3.50
2022-08-24T18:22:21.112Z,3.13
2022-08-24T18:25:28.468Z,3.47
2022-08-24T18:28:34.340Z,3.95
2022-08-24T18:31:41.197Z,3.90
2022-08-24T18:34:47.194Z,3.30
2022-08-24T18:37:57.605Z,4.10
2022-08-24T18:41:06.182Z,3.63
2022-08-24T18:44:16.184Z,3.67
2022-08-24T18:47:22.191Z,3.85
2022-08-24T18:50:29.681Z,4.15
2022-08-24T18:53:39.864Z,3.97
2022-08-24T18:56:48.123Z,4.22
2022-08-24T18:59:54.571Z,3.53
2022-08-24T19:03:06.287Z,3.85
2022-08-24T19:06:13.106Z,4.30
2022-08-24T19:09:22.824Z,4.23
2022-08-24T19:12:31.777Z,3.50
2022-08-24T19:15:40.263Z,4.22
2022-08-24T19:18:50.312Z,3.80
2022-08-24T19:21:57.423Z,4.43
2022-08-24T19:25:07.182Z,4.07
2022-08-24T19:28:14.619Z,3.75
2022-08-24T19:31:24.253Z,4.28
2022-08-24T19:34:31.920Z,3.83
2022-08-24T19:37:37.831Z,3.87
2022-08-24T19:40:48.388Z,3.40
2022-08-24T19:44:12.930Z,3.60
2022-08-24T19:47:30.573Z,3.70
2022-08-24T19:50:36.469Z,4.07
2022-08-24T19:53:44.447Z,3.73
2022-08-24T19:56:55.681Z,3.67
2022-08-24T20:00:07.060Z,4.07
2022-08-24T20:03:13.528Z,3.77
2022-08-24T20:06:21.784Z,3.70
2022-08-24T20:09:29.099Z,3.60
2022-08-24T20:12:39.315Z,3.97
2022-08-24T20:15:45.868Z,4.40
2022-08-24T20:18:53.187Z,4.17
2022-08-24T20:21:59.174Z,4.03
2022-08-24T20:25:10.065Z,3.70
2022-08-24T20:28:38.212Z,4.00
2022-08-24T20:31:45.654Z,4.30
2022-08-24T20:34:51.593Z,3.77
2022-08-24T20:37:59.607Z,4.23
2022-08-24T20:41:07.655Z,4.37
2022-08-24T20:44:17.778Z,4.10
2022-08-24T20:47:24.286Z,3.87
2022-08-24T20:50:31.177Z,3.90
2022-08-24T20:53:38.685Z,3.97
2022-08-24T20:56:46.983Z,4.83
2022-08-24T20:59:55.690Z,4.53
2022-08-24T21:03:03.893Z,4.57
2022-08-24T21:06:11.872Z,5.17
2022-08-24T21:09:18.861Z,4.60
2022-08-24T21:12:26.598Z,4.93
2022-08-24T21:15:41.686Z,4.93
2022-08-24T21:18:48.030Z,4.70
2022-08-24T21:21:55.209Z,5.27
2022-08-24T21:25:01.133Z,5.47
2022-08-24T21:28:08.907Z,5.13
2022-08-24T21:31:22.944Z,5.13
2022-08-24T21:34:42.024Z,5.60
2022-08-24T21:37:48.149Z,4.93
2022-08-24T21:40:56.509Z,5.67
2022-08-24T21:44:03.067Z,5.87
2022-08-24T21:47:12.968Z,5.17
2022-08-24T21:50:19.901Z,4.90
2022-08-24T21:53:32.461Z,5.10
2022-08-24T21:56:40.791Z,5.40
2022-08-24T21:59:48.891Z,6.17
2022-08-24T22:02:58.605Z,6.00
2022-08-24T22:06:07.886Z,5.33
2022-08-24T22:09:14.036Z,5.60
2022-08-24T22:12:21.433Z,5.87
2022-08-24T22:15:27.540Z,5.50
2022-08-24T22:18:41.784Z,6.10
2022-08-24T22:21:49.032Z,6.40
2022-08-24T22:24:56.470Z,6.70
2022-08-24T22:28:03.338Z,5.27
2022-08-24T22:31:19.007Z,6.43
2022-08-24T22:34:27.710Z,5.97
2022-08-24T22:37:34.797Z,5.90
2022-08-24T22:40:41.384Z,6.50
2022-08-24T22:44:03.943Z,6.27
2022-08-24T22:47:13.030Z,6.30
2022-08-24T22:50:25.087Z,6.47
2022-08-24T22:53:31.122Z,6.70
2022-08-24T22:56:40.724Z,6.80
2022-08-24T22:59:47.088Z,6.57
2022-08-24T23:02:54.095Z,6.20
2022-08-24T23:06:02.995Z,7.10
2022-08-24T23:09:11.101Z,5.80
2022-08-24T23:12:19.312Z,6.37
2022-08-24T23:15:26.338Z,6.37
2022-08-24T23:18:47.783Z,6.23
2022-08-24T23:21:57.685Z,6.40
2022-08-24T23:25:03.727Z,7.50
2022-08-24T23:28:11.972Z,6.40
2022-08-24T23:31:19.979Z,7.03
2022-08-24T23:34:27.405Z,6.30
2022-08-24T23:37:36.130Z,6.53
2022-08-24T23:40:44.273Z,5.43
2022-08-24T23:43:50.248Z,5.80
2022-08-24T23:46:58.606Z,6.07
2022-08-24T23:50:04.478Z,5.90
2022-08-24T23:53:20.809Z,6.03
2022-08-24T23:56:31.515Z,6.70
2022-08-24T23:59:39.326Z,6.90
